Time;durP1;ratioP1;P1;durP2;ratioP2;P2;SDS_P1;SDS_P2;PMS_P1;PMS_P2;Temp;Humidity;BMP_temperature;BMP_pressure;BME280_temperature;BME280_humidity;BME280_pressure;Samples;Min_cycle;Max_cycle;Signal;HPM_P1;HPM_P2
2021/04/12 00:01:56;;;;;;;4.37;2.53;;;2.10;99.90;;;;;;4952719;29;20174;-78
2021/04/12 00:04:50;;;;;;;4.87;3.10;;;2.20;99.90;;;;;;4936815;29;20231;-78
2021/04/12 00:07:39;;;;;;;8.43;3.67;;;2.10;99.90;;;;;;4938588;29;20196;-78
2021/04/12 00:10:05;;;;;;;5.40;3.10;;;;;;;;;;4939011;29;20826;-78
2021/04/12 00:12:33;;;;;;;4.37;2.27;;;;;;;;;;4952437;29;20224;-78
2021/04/12 00:15:13;;;;;;;3.17;2.00;;;2.10;99.90;;;;;;4952121;29;20203;-78
2021/04/12 00:17:40;;;;;;;4.03;2.10;;;2.30;99.90;;;;;;4938390;29;20181;-78
2021/04/12 00:20:06;;;;;;;4.27;2.07;;;2.20;99.90;;;;;;4936588;29;20215;-77
2021/04/12 00:22:35;;;;;;;3.00;2.20;;;2.20;99.90;;;;;;4953651;29;20177;-76
2021/04/12 00:25:14;;;;;;;5.57;1.93;;;2.20;99.90;;;;;;4952283;29;20696;-78
2021/04/12 00:27:54;;;;;;;3.53;1.90;;;2.30;99.90;;;;;;4921480;28;20196;-77
2021/04/12 00:30:26;;;;;;;2.90;1.87;;;2.20;99.90;;;;;;4936904;29;20711;-77
2021/04/12 00:33:10;;;;;;;2.77;2.00;;;2.20;99.90;;;;;;4936963;29;20645;-77
2021/04/12 00:35:52;;;;;;;6.03;2.20;;;2.10;99.90;;;;;;4951975;29;20216;-77
2021/04/12 00:38:34;;;;;;;4.73;2.23;;;2.00;99.90;;;;;;4936833;29;20201;-76
2021/04/12 00:41:27;;;;;;;4.63;2.20;;;2.10;99.90;;;;;;4952264;29;20173;-76
2021/04/12 00:43:57;;;;;;;5.50;2.33;;;2.10;99.90;;;;;;4952279;29;20185;-77
2021/04/12 00:46:50;;;;;;;5.53;2.27;;;2.20;99.90;;;;;;4951995;28;20189;-77
2021/04/12 00:49:37;;;;;;;5.60;2.40;;;2.20;99.90;;;;;;4953138;29;20275;-78
2021/04/12 00:52:41;;;;;;;3.77;2.07;;;2.00;99.90;;;;;;4937953;29;20592;-78
2021/04/12 00:55:38;;;;;;;3.97;2.27;;;2.10;99.90;;;;;;4951879;29;20324;-76
2021/04/12 00:58:23;;;;;;;3.83;2.10;;;2.10;99.90;;;;;;4935986;29;20209;-78
2021/04/12 01:01:12;;;;;;;2.93;1.87;;;2.10;99.90;;;;;;4937405;28;20637;-77
2021/04/12 01:04:14;;;;;;;2.97;2.23;;;2.00;99.90;;;;;;4923615;29;20289;-78
2021/04/12 01:07:10;;;;;;;5.53;2.60;;;1.90;99.90;;;;;;4939352;29;20734;-78
2021/04/12 01:10:27;;;;;;;3.93;2.17;;;1.90;99.90;;;;;;4953148;29;20220;-78
2021/04/12 01:13:00;;;;;;;6.17;2.17;;;1.70;99.90;;;;;;4934096;29;20204;-77
2021/04/12 01:16:02;;;;;;;4.53;2.23;;;1.80;99.90;;;;;;4939167;28;20457;-78
2021/04/12 01:18:47;;;;;;;4.63;2.37;;;1.80;99.90;;;;;;4956392;29;20196;-77
2021/04/12 01:21:40;;;;;;;4.10;2.20;;;1.80;99.90;;;;;;4955679;28;20640;-77
2021/04/12 01:24:24;;;;;;;2.80;2.23;;;1.80;99.90;;;;;;4956320;28;20202;-78
2021/04/12 01:27:06;;;;;;;5.50;2.30;;;1.80;99.90;;;;;;4956309;29;20232;-78
2021/04/12 01:29:50;;;;;;;5.83;2.50;;;1.80;99.90;;;;;;4955203;28;20195;-78
2021/04/12 01:32:37;;;;;;;6.33;2.83;;;1.90;99.90;;;;;;4956256;28;20216;-78
2021/04/12 01:35:09;;;;;;;4.90;2.37;;;2.00;99.90;;;;;;4955789;28;20585;-77
2021/04/12 01:37:43;;;;;;;9.37;2.43;;;1.90;99.90;;;;;;4956247;29;20184;-78
2021/04/12 01:40:28;;;;;;;2.87;1.90;;;1.90;99.90;;;;;;4956197;29;20180;-76
2021/04/12 01:43:28;;;;;;;4.63;1.90;;;1.80;99.90;;;;;;4954950;29;20727;-77
2021/04/12 01:46:07;;;;;;;3.57;2.20;;;1.90;99.90;;;;;;4954666;29;20193;-77
2021/04/12 01:48:52;;;;;;;5.77;2.10;;;1.90;99.90;;;;;;4938417;29;20217;-77
2021/04/12 01:51:36;;;;;;;5.40;2.20;;;1.80;99.90;;;;;;4954823;28;20232;-77
2021/04/12 01:54:26;;;;;;;5.70;2.40;;;1.80;99.90;;;;;;4954607;29;20184;-78
2021/04/12 01:57:13;;;;;;;6.40;2.40;;;1.80;99.90;;;;;;4955932;29;20271;-77
2021/04/12 02:00:13;;;;;;;3.47;1.97;;;1.80;99.90;;;;;;4940128;29;20287;-78
2021/04/12 02:03:11;;;;;;;3.13;2.30;;;1.70;99.90;;;;;;4955568;28;20189;-78
2021/04/12 02:05:58;;;;;;;6.40;2.23;;;1.70;99.90;;;;;;4924155;29;20201;-78
2021/04/12 02:08:51;;;;;;;4.07;2.50;;;1.60;99.90;;;;;;4955542;28;20255;-77
2021/04/12 02:11:32;;;;;;;4.63;2.60;;;1.60;99.90;;;;;;4954006;29;20679;-78
2021/04/12 02:14:06;;;;;;;5.50;2.80;;;1.70;99.90;;;;;;4955356;28;20192;-78
2021/04/12 02:16:56;;;;;;;5.57;2.17;;;1.70;99.90;;;;;;4955441;29;20207;-76
2021/04/12 02:19:37;;;;;;;4.87;2.70;;;1.70;99.90;;;;;;4955477;28;20606;-78
2021/04/12 02:22:24;;;;;;;3.53;2.50;;;1.70;99.90;;;;;;4953614;28;20185;-76
2021/04/12 02:25:01;;;;;;;5.93;2.60;;;1.70;99.90;;;;;;4954983;29;20181;-76
2021/04/12 02:28:04;;;;;;;5.17;2.50;;;1.60;99.90;;;;;;4954224;29;20178;-77
2021/04/12 02:30:33;;;;;;;6.37;2.40;;;1.60;99.90;;;;;;4953783;29;20199;-77
2021/04/12 02:33:06;;;;;;;6.27;2.63;;;1.60;99.90;;;;;;4954177;29;20386;-77
2021/04/12 02:36:08;;;;;;;5.17;2.67;;;1.50;99.90;;;;;;4953781;29;20214;-78
2021/04/12 02:38:39;;;;;;;4.33;2.90;;;1.50;99.90;;;;;;4954903;29;20666;-77
2021/04/12 02:41:25;;;;;;;7.70;3.07;;;1.60;99.90;;;;;;4955281;28;20188;-78
2021/04/12 02:44:01;;;;;;;5.83;3.20;;;1.50;99.90;;;;;;4938086;29;20226;-78
2021/04/12 02:46:53;;;;;;;4.80;3.00;;;1.60;99.90;;;;;;4953541;29;20192;-77
2021/04/12 02:49:32;;;;;;;5.47;3.20;;;1.40;99.90;;;;;;4953692;29;20205;-76
2021/04/12 02:52:16;;;;;;;4.47;2.90;;;1.50;99.90;;;;;;4953734;29;20204;-78
2021/04/12 02:55:19;;;;;;;6.50;3.30;;;1.50;99.90;;;;;;4955187;28;20228;-78
2021/04/12 02:58:23;;;;;;;4.13;3.23;;;1.40;99.90;;;;;;4954632;29;20612;-76
2021/04/12 03:01:10;;;;;;;7.67;3.30;;;1.50;99.90;;;;;;4953521;29;20487;-78
2021/04/12 03:04:00;;;;;;;7.50;3.93;;;1.40;99.90;;;;;;4953662;29;20183;-77
2021/04/12 03:06:50;;;;;;;4.53;3.43;;;1.50;99.90;;;;;;4954846;29;20213;-78
2021/04/12 03:09:31;;;;;;;5.33;3.60;;;1.40;99.90;;;;;;4953028;29;20240;-78
2021/04/12 03:12:07;;;;;;;5.13;3.20;;;1.50;99.90;;;;;;4954336;28;20212;-77
2021/04/12 03:14:53;;;;;;;9.10;3.77;;;1.50;99.90;;;;;;4953610;29;20189;-80
2021/04/12 03:17:40;;;;;;;4.13;3.33;;;1.50;99.90;;;;;;4954715;28;20216;-77
2021/04/12 03:20:24;;;;;;;5.63;3.50;;;1.50;99.90;;;;;;4955000;28;20196;-79
2021/04/12 03:23:01;;;;;;;6.30;3.33;;;1.60;99.90;;;;;;4953650;28;20267;-80
2021/04/12 03:25:52;;;;;;;7.43;3.37;;;1.50;99.90;;;;;;4954521;29;20703;-80
2021/04/12 03:28:42;;;;;;;6.80;3.47;;;1.50;99.90;;;;;;4954899;29;20226;-77
2021/04/12 03:31:33;;;;;;;4.37;2.87;;;1.40;99.90;;;;;;4955065;28;20988;-78
2021/04/12 03:34:23;;;;;;;6.00;3.83;;;1.40;99.90;;;;;;4950658;28;20523;-75
2021/04/12 03:36:58;;;;;;;6.80;3.70;;;1.30;99.90;;;;;;4953635;29;20209;-80
2021/04/12 03:39:27;;;;;;;4.97;3.20;;;1.30;99.90;;;;;;4953247;29;20201;-79
2021/04/12 03:42:21;;;;;;;9.57;3.37;;;1.30;99.90;;;;;;4953020;29;20566;-80
2021/04/12 03:45:05;;;;;;;6.63;3.17;;;1.20;99.90;;;;;;4953968;28;20184;-79
2021/04/12 03:47:30;;;;;;;8.07;3.27;;;1.30;99.90;;;;;;4954560;28;20183;-79
2021/04/12 03:50:31;;;;;;;7.03;3.23;;;1.40;99.90;;;;;;4955693;29;20199;-76
2021/04/12 03:53:33;;;;;;;5.23;3.43;;;1.40;99.90;;;;;;4947463;29;20226;-78
2021/04/12 03:56:04;;;;;;;7.00;3.33;;;1.30;99.90;;;;;;4938115;29;20306;-80
2021/04/12 03:58:44;;;;;;;5.70;3.70;;;1.30;99.90;;;;;;4953263;28;20197;-80
2021/04/12 04:01:45;;;;;;;6.83;3.37;;;1.30;99.90;;;;;;4936545;29;20185;-80
2021/04/12 04:04:26;;;;;;;6.60;3.70;;;1.20;99.90;;;;;;4876775;29;20198;-80
2021/04/12 04:06:54;;;;;;;12.40;3.87;;;1.30;99.90;;;;;;4944136;28;20594;-80
2021/04/12 04:09:56;;;;;;;5.93;3.60;;;1.20;99.90;;;;;;4954693;29;20211;-78
2021/04/12 04:12:45;;;;;;;5.77;3.50;;;1.20;99.90;;;;;;4954201;28;20758;-79
2021/04/12 04:15:27;;;;;;;8.47;3.47;;;1.30;99.90;;;;;;4918979;29;20228;-77
2021/04/12 04:18:02;;;;;;;10.13;3.97;;;1.30;99.90;;;;;;4953616;29;20184;-80
2021/04/12 04:20:49;;;;;;;5.23;3.50;;;1.20;99.90;;;;;;4954290;28;20181;-78
2021/04/12 04:23:44;;;;;;;4.27;3.40;;;1.20;99.90;;;;;;4954937;29;20185;-79
2021/04/12 04:26:22;;;;;;;7.37;3.70;;;1.20;99.90;;;;;;4937378;29;20193;-79
2021/04/12 04:29:14;;;;;;;7.23;3.67;;;1.30;99.90;;;;;;4953456;28;20214;-80
2021/04/12 04:31:57;;;;;;;6.20;3.87;;;1.10;99.90;;;;;;4916055;29;20609;-80
2021/04/12 04:34:47;;;;;;;6.17;3.63;;;1.10;99.90;;;;;;4953603;28;20203;-79
2021/04/12 04:37:23;;;;;;;6.50;4.00;;;1.10;99.90;;;;;;4937878;29;20248;-78
2021/04/12 04:40:27;;;;;;;7.10;4.10;;;1.10;99.90;;;;;;4953845;29;20204;-79
2021/04/12 04:43:29;;;;;;;6.83;3.67;;;1.10;99.90;;;;;;4954961;29;20177;-79
2021/04/12 04:46:27;;;;;;;8.70;3.63;;;1.00;99.90;;;;;;4956216;28;20177;-79
2021/04/12 04:49:31;;;;;;;10.53;4.10;;;1.00;99.90;;;;;;4957430;28;20196;-77
2021/04/12 04:52:08;;;;;;;10.10;4.63;;;1.10;99.90;;;;;;4958520;29;20635;-80
2021/04/12 04:54:58;;;;;;;7.30;4.07;;;1.00;99.90;;;;;;4956682;28;20183;-77
2021/04/12 04:57:46;;;;;;;6.20;4.03;;;1.00;99.90;;;;;;4958418;29;20538;-79
2021/04/12 05:00:45;;;;;;;4.97;3.97;;;1.00;99.90;;;;;;4956502;29;20185;-78
2021/04/12 05:03:26;;;;;;;5.93;3.83;;;1.00;99.90;;;;;;4955843;29;20277;-76
2021/04/12 05:06:10;;;;;;;9.17;4.43;;;1.10;99.90;;;;;;4958856;29;20269;-78
2021/04/12 05:09:13;;;;;;;7.17;3.97;;;1.20;99.90;;;;;;4959286;28;20208;-79
2021/04/12 05:12:00;;;;;;;7.97;4.40;;;1.20;99.90;;;;;;4960545;29;20635;-79
2021/04/12 05:14:39;;;;;;;8.93;4.43;;;1.30;99.90;;;;;;4960956;29;20183;-77
2021/04/12 05:17:24;;;;;;;5.87;4.17;;;1.30;99.90;;;;;;4959200;29;20232;-79
2021/04/12 05:20:04;;;;;;;6.13;4.00;;;1.30;99.90;;;;;;4940690;29;20849;-77
2021/04/12 05:22:37;;;;;;;7.10;4.23;;;1.30;99.90;;;;;;4956587;29;20181;-74
2021/04/12 05:25:17;;;;;;;8.37;4.20;;;1.30;99.90;;;;;;4955116;29;20191;-77
2021/04/12 05:28:07;;;;;;;6.13;3.93;;;1.40;99.90;;;;;;4955214;28;20185;-75
2021/04/12 05:31:31;;;;;;;8.70;4.30;;;1.30;99.90;;;;;;4956743;28;20180;-79
2021/04/12 05:34:26;;;;;;;8.80;4.30;;;1.40;99.90;;;;;;4896924;29;20601;-77
2021/04/12 05:37:16;;;;;;;10.07;3.97;;;1.40;99.90;;;;;;4881714;29;20236;-75
2021/04/12 05:39:48;;;;;;;7.43;4.30;;;1.40;99.90;;;;;;4946932;28;20223;-74
2021/04/12 05:42:18;;;;;;;6.07;4.27;;;1.40;99.90;;;;;;4954983;29;20178;-77
2021/04/12 05:44:54;;;;;;;8.53;4.47;;;1.30;99.90;;;;;;4939477;29;20172;-77
2021/04/12 05:47:28;;;;;;;7.00;4.33;;;1.40;99.90;;;;;;4955138;29;20173;-81
2021/04/12 05:50:38;;;;;;;8.20;4.43;;;1.40;99.90;;;;;;4923745;29;20641;-77
2021/04/12 05:53:30;;;;;;;6.53;4.10;;;1.60;99.90;;;;;;4953426;28;20192;-75
2021/04/12 05:56:02;;;;;;;8.47;4.23;;;1.50;99.90;;;;;;4936783;29;20205;-77
2021/04/12 05:58:46;;;;;;;7.87;4.40;;;1.60;99.90;;;;;;4952871;28;20669;-77
2021/04/12 06:01:40;;;;;;;4.57;3.87;;;1.80;99.90;;;;;;4961854;28;20181;-80
2021/04/12 06:04:46;;;;;;;6.93;3.90;;;2.00;99.90;;;;;;4938174;28;20191;-73
2021/04/12 06:07:20;;;;;;;10.40;4.20;;;2.30;99.90;;;;;;4954693;28;20212;-72
2021/04/12 06:10:17;;;;;;;6.57;4.00;;;2.80;99.90;;;;;;4955074;28;20707;-72
2021/04/12 06:13:08;;;;;;;6.50;3.73;;;3.50;99.90;;;;;;4953342;28;20562;-74
2021/04/12 06:15:57;;;;;;;5.50;3.80;;;3.80;99.90;;;;;;4950783;29;20236;-74
2021/04/12 06:18:23;;;;;;;6.37;3.40;;;4.00;99.90;;;;;;4964231;28;20234;-71
2021/04/12 06:21:23;;;;;;;5.87;3.70;;;4.10;99.90;;;;;;4959856;28;20732;-70
2021/04/12 06:23:56;;;;;;;7.10;3.63;;;4.00;99.90;;;;;;4894303;29;20271;-70
2021/04/12 06:26:44;;;;;;;6.40;3.43;;;4.30;99.90;;;;;;4962060;28;20183;-71
2021/04/12 06:29:32;;;;;;;7.73;3.83;;;4.50;99.90;;;;;;4950819;29;20260;-71
2021/04/12 06:32:19;;;;;;;6.83;3.90;;;4.60;99.90;;;;;;4954098;29;20184;-72
2021/04/12 06:34:51;;;;;;;5.47;3.97;;;4.70;99.90;;;;;;4953658;29;20205;-71
2021/04/12 06:37:28;;;;;;;7.73;3.83;;;5.40;99.90;;;;;;4954933;28;20692;-70
2021/04/12 06:40:21;;;;;;;10.83;4.07;;;6.70;99.90;;;;;;4955023;29;20287;-72
2021/04/12 06:43:24;;;;;;;5.67;3.33;;;7.80;99.90;;;;;;4953927;29;20189;-72
2021/04/12 06:46:17;;;;;;;7.03;3.67;;;8.60;99.90;;;;;;4953726;29;20597;-72
2021/04/12 06:49:18;;;;;;;7.23;3.57;;;9.20;99.90;;;;;;4954759;29;20197;-72
2021/04/12 06:52:05;;;;;;;5.77;3.67;;;9.80;99.90;;;;;;4955044;29;20176;-72
2021/04/12 06:54:50;;;;;;;6.27;3.93;;;9.70;99.90;;;;;;4953218;29;20189;-72
2021/04/12 06:57:29;;;;;;;7.37;3.70;;;9.70;99.90;;;;;;4933739;28;20201;-72
2021/04/12 07:00:06;;;;;;;5.73;3.97;;;10.40;99.90;;;;;;4953432;28;20204;-72
2021/04/12 07:02:50;;;;;;;5.43;3.67;;;11.10;99.90;;;;;;4951815;29;20247;-72
2021/04/12 07:05:53;;;;;;;8.03;3.80;;;11.50;99.90;;;;;;4954449;28;20288;-72
2021/04/12 07:08:55;;;;;;;6.43;3.57;;;11.60;99.90;;;;;;4953940;28;20684;-72
2021/04/12 07:11:59;;;;;;;6.23;3.37;;;11.90;99.90;;;;;;4954592;28;20188;-70
2021/04/12 07:14:52;;;;;;;5.63;3.00;;;11.70;99.90;;;;;;4915742;29;20285;-71
2021/04/12 07:17:46;;;;;;;5.07;3.33;;;10.70;99.90;;;;;;4956347;28;20252;-71
2021/04/12 07:20:24;;;;;;;6.37;3.50;;;9.10;99.90;;;;;;4965697;28;20585;-72
2021/04/12 07:23:13;;;;;;;7.30;4.03;;;8.70;99.90;;;;;;4942879;29;20181;-72
2021/04/12 07:25:57;;;;;;;6.03;4.00;;;8.20;99.90;;;;;;4962236;28;20248;-73
2021/04/12 07:28:41;;;;;;;7.70;4.37;;;7.30;99.90;;;;;;4951124;28;20209;-74
2021/04/12 07:31:16;;;;;;;8.03;4.30;;;7.30;99.90;;;;;;4954125;29;20174;-75
2021/04/12 07:34:06;;;;;;;7.07;3.90;;;7.20;99.90;;;;;;4953405;29;20192;-72
2021/04/12 07:37:09;;;;;;;7.43;4.00;;;6.80;99.90;;;;;;4936804;29;20267;-72
2021/04/12 07:39:54;;;;;;;5.00;3.80;;;6.50;99.90;;;;;;4954633;29;20201;-73
2021/04/12 07:42:57;;;;;;;8.63;4.30;;;6.20;99.90;;;;;;4937078;29;20654;-74
2021/04/12 07:46:04;;;;;;;9.13;4.40;;;6.40;99.90;;;;;;4954350;29;20200;-73
2021/04/12 07:48:57;;;;;;;6.70;4.03;;;6.70;99.90;;;;;;4954985;28;20193;-72
2021/04/12 07:51:40;;;;;;;10.43;4.03;;;6.90;99.90;;;;;;4952514;29;20564;-71
2021/04/12 07:54:19;;;;;;;7.03;4.00;;;7.20;99.90;;;;;;4952036;29;20211;-71
2021/04/12 07:57:13;;;;;;;5.57;3.70;;;7.40;99.90;;;;;;4950824;29;20829;-72
2021/04/12 07:59:58;;;;;;;5.03;3.40;;;7.50;99.90;;;;;;4918576;29;20222;-70
2021/04/12 08:02:57;;;;;;;6.43;3.63;;;7.90;99.90;;;;;;4952905;29;20657;-71
2021/04/12 08:05:34;;;;;;;6.37;3.43;;;8.00;99.90;;;;;;4951796;29;20180;-71
2021/04/12 08:08:18;;;;;;;3.87;3.17;;;8.20;99.90;;;;;;4949199;29;20272;-72
2021/04/12 08:11:02;;;;;;;4.40;2.80;;;8.20;99.90;;;;;;4953976;28;20187;-74
2021/04/12 08:13:48;;;;;;;3.83;2.60;;;8.60;99.90;;;;;;4953475;29;20187;-76
2021/04/12 08:16:13;;;;;;;5.57;2.70;;;8.90;99.90;;;;;;4953154;29;20962;-71
2021/04/12 08:19:07;;;;;;;4.73;2.50;;;8.70;99.90;;;;;;4953661;29;20198;-71
2021/04/12 08:22:30;;;;;;;4.90;2.10;;;9.00;99.90;;;;;;4956306;28;20174;-72
2021/04/12 08:25:32;;;;;;;4.50;2.43;;;9.50;99.90;;;;;;4879612;29;20188;-72
2021/04/12 08:28:35;;;;;;;4.10;2.10;;;10.00;99.90;;;;;;4879380;29;20196;-78
2021/04/12 08:31:10;;;;;;;5.33;1.90;;;10.30;99.90;;;;;;4957593;29;20167;-72
2021/04/12 08:33:41;;;;;;;2.93;1.50;;;9.80;99.90;;;;;;4957495;29;20188;-74
2021/04/12 08:36:25;;;;;;;2.90;1.67;;;9.60;99.90;;;;;;4956032;29;20238;-72
2021/04/12 08:39:16;;;;;;;2.93;1.70;;;9.10;99.90;;;;;;4957353;29;20228;-73
2021/04/12 08:41:44;;;;;;;5.27;1.60;;;8.90;99.90;;;;;;4956421;29;20173;-71
2021/04/12 08:44:10;;;;;;;4.37;1.80;;;8.70;99.90;;;;;;4955959;29;20212;-71
2021/04/12 08:47:20;;;;;;;3.47;1.90;;;9.00;99.90;;;;;;4957037;28;20220;-72
2021/04/12 08:50:01;;;;;;;3.77;2.23;;;9.30;99.90;;;;;;4927543;29;20217;-74
2021/04/12 08:52:38;;;;;;;4.00;2.00;;;9.60;99.90;;;;;;4924658;29;20210;-73
2021/04/12 08:55:13;;;;;;;4.40;2.10;;;9.60;99.90;;;;;;4956911;29;20261;-74
2021/04/12 08:58:23;;;;;;;2.87;1.90;;;9.60;99.90;;;;;;4955899;29;20212;-75
2021/04/12 09:00:55;;;;;;;5.07;1.90;;;9.50;99.90;;;;;;4956972;29;20182;-74
2021/04/12 09:03:29;;;;;;;2.90;1.90;;;9.30;99.90;;;;;;4956653;29;20184;-72
2021/04/12 09:06:07;;;;;;;3.23;1.80;;;9.60;99.90;;;;;;4955534;29;20185;-74
2021/04/12 09:09:03;;;;;;;4.47;1.80;;;9.50;99.90;;;;;;4956431;29;20719;-74
2021/04/12 09:11:47;;;;;;;2.93;1.70;;;9.30;99.90;;;;;;4956909;29;20189;-77
2021/04/12 09:14:36;;;;;;;4.27;2.00;;;9.00;99.90;;;;;;4956736;29;20257;-74
2021/04/12 09:17:39;;;;;;;4.43;1.73;;;8.60;99.90;;;;;;4955322;29;20236;-74
2021/04/12 09:20:25;;;;;;;2.53;1.70;;;8.30;99.90;;;;;;4956236;29;20760;-75
2021/04/12 09:23:20;;;;;;;4.77;1.20;;;8.30;99.90;;;;;;4955233;28;20268;-78
2021/04/12 09:26:01;;;;;;;4.17;1.53;;;8.30;99.90;;;;;;4942258;29;20233;-73
2021/04/12 09:28:28;;;;;;;2.83;1.30;;;;;;;;;;4956444;29;20196;-76
2021/04/12 09:31:14;;;;;;;3.20;1.53;;;;;;;;;;4954693;28;20213;-73
2021/04/12 09:33:55;;;;;;;3.50;1.60;;;;;;;;;;4953730;29;20230;-73
2021/04/12 09:36:40;;;;;;;5.17;1.50;;;;;;;;;;4936920;29;20578;-76
2021/04/12 09:39:25;;;;;;;3.43;1.40;;;;;;;;;;4935864;29;20198;-74
2021/04/12 09:42:10;;;;;;;2.83;1.50;;;;;;;;;;4935883;29;20179;-71
2021/04/12 09:44:50;;;;;;;4.90;1.10;;;;;;;;;;4937271;29;20196;-71
2021/04/12 09:47:32;;;;;;;1.63;0.97;;;;;;;;;;4954342;28;20181;-69
2021/04/12 09:50:16;;;;;;;2.33;0.90;;;;;;;;;;4955427;28;20230;-69
2021/04/12 09:52:48;;;;;;;2.23;1.00;;;;;;;;;;4953498;29;20227;-69
2021/04/12 09:55:33;;;;;;;3.03;0.90;;;;;;;;;;4955807;29;20773;-70
2021/04/12 09:58:18;;;;;;;2.97;1.20;;;;;;;;;;4954668;29;20328;-72
2021/04/12 10:00:48;;;;;;;2.07;1.00;;;;;;;;;;4956226;29;20179;-71
2021/04/12 10:03:20;;;;;;;3.67;1.20;;;;;;;;;;4954974;29;20537;-71
2021/04/12 10:06:05;;;;;;;3.60;1.03;;;;;;;;;;4955749;29;20192;-71
2021/04/12 10:08:40;;;;;;;1.73;0.90;;;;;;;;;;4955732;29;20649;-71
2021/04/12 10:11:13;;;;;;;2.67;0.90;;;;;;;;;;4954524;28;20182;-74
2021/04/12 10:13:42;;;;;;;3.90;1.00;;;;;;;;;;4954701;29;20186;-75
2021/04/12 10:16:09;;;;;;;3.50;1.00;;;;;;;;;;4938506;29;20204;-71
2021/04/12 10:18:40;;;;;;;1.90;0.90;;;;;;;;;;4938626;29;20240;-71
2021/04/12 10:21:25;;;;;;;3.63;1.00;;;;;;;;;;4954371;29;20185;-73
2021/04/12 10:24:00;;;;;;;2.37;1.23;;;;;;;;;;4954470;29;20183;-72
2021/04/12 10:26:28;;;;;;;2.73;1.00;;;;;;;;;;4954368;29;20561;-72
2021/04/12 10:29:02;;;;;;;2.03;1.10;;;;;;;;;;4938169;29;20233;-72
2021/04/12 10:31:35;;;;;;;6.73;1.10;;;;;;;;;;4952974;29;20180;-72
2021/04/12 10:34:20;;;;;;;2.60;1.20;;;;;;;;;;4953909;29;20185;-72
2021/04/12 10:36:52;;;;;;;2.77;1.47;;;;;;;;;;4954991;29;20214;-71
2021/04/12 10:39:29;;;;;;;3.13;1.10;;;;;;;;;;4955065;29;20200;-72
2021/04/12 10:42:04;;;;;;;4.13;1.30;;;;;;;;;;4954031;29;20519;-70
2021/04/12 10:44:40;;;;;;;4.27;1.13;;;;;;;;;;4953170;28;20269;-70
2021/04/12 10:47:25;;;;;;;1.73;1.00;;;;;;;;;;4937392;29;20192;-71
2021/04/12 10:49:52;;;;;;;2.67;0.97;;;;;;;;;;4955022;29;20204;-72
2021/04/12 10:52:41;;;;;;;3.13;1.20;;;;;;;;;;4954989;29;20208;-73
2021/04/12 10:55:23;;;;;;;2.63;0.97;;;;;;;;;;4954560;28;20193;-72
2021/04/12 10:58:06;;;;;;;1.70;0.93;;;;;;;;;;4953510;29;20195;-72
2021/04/12 11:00:32;;;;;;;3.20;1.10;;;;;;;;;;4953870;29;20165;-72
2021/04/12 11:03:24;;;;;;;1.77;0.80;;;;;;;;;;4954810;29;20179;-72
2021/04/12 11:06:09;;;;;;;1.43;0.80;;;;;;;;;;4953712;29;20168;-72
2021/04/12 11:08:38;;;;;;;2.57;1.00;;;;;;;;;;4937516;29;20231;-70
2021/04/12 11:11:10;;;;;;;2.27;1.03;;;;;;;;;;4954553;29;20258;-73
2021/04/12 11:13:42;;;;;;;2.80;1.00;;;;;;;;;;4953483;29;20270;-75
2021/04/12 11:16:26;;;;;;;5.00;1.20;;;;;;;;;;4953191;29;20636;-72
2021/04/12 11:19:01;;;;;;;2.67;1.10;;;;;;;;;;4954413;29;20204;-72
2021/04/12 11:21:30;;;;;;;2.47;1.10;;;;;;;;;;4953133;29;20190;-72
2021/04/12 11:24:09;;;;;;;1.43;0.80;;;;;;;;;;4954363;29;20176;-72
2021/04/12 11:26:35;;;;;;;1.50;0.60;;;;;;;;;;4953218;28;20653;-78
2021/04/12 11:29:20;;;;;;;0.87;0.50;;;;;;;;;;4953087;29;20233;-73
2021/04/12 11:31:49;;;;;;;1.23;0.67;;;;;;;;;;4934216;29;20209;-72
2021/04/12 11:34:18;;;;;;;2.43;1.00;;;;;;;;;;4933986;29;20225;-72
2021/04/12 11:37:02;;;;;;;1.70;1.00;;;;;;;;;;4933838;29;20220;-72
2021/04/12 11:39:29;;;;;;;1.60;0.90;;;;;;;;;;4935162;29;20573;-72
2021/04/12 11:41:56;;;;;;;1.07;0.83;;;;;;;;;;4934019;29;20247;-75
2021/04/12 11:44:26;;;;;;;1.80;0.90;;;;;;;;;;4934004;29;20186;-72
2021/04/12 11:47:11;;;;;;;2.03;1.00;;;;;;;;;;4933726;29;20618;-73
2021/04/12 11:49:43;;;;;;;2.17;0.90;;;;;;;;;;4934934;29;20805;-74
2021/04/12 11:52:10;;;;;;;2.40;0.70;;;;;;;;;;4934942;29;20236;-73
2021/04/12 11:54:37;;;;;;;2.20;0.80;;;;;;;;;;4933343;29;20218;-76
2021/04/12 11:57:12;;;;;;;2.00;0.70;;;;;;;;;;4933179;29;20239;-79
2021/04/12 12:00:03;;;;;;;3.00;1.00;;;;;;;;;;4934793;29;20700;-75
2021/04/12 12:02:29;;;;;;;0.80;0.70;;;;;;;;;;4933784;29;20171;-75
2021/04/12 12:04:55;;;;;;;3.97;1.10;;;;;;;;;;4934655;29;20189;-75
2021/04/12 12:07:24;;;;;;;1.47;0.90;;;;;;;;;;4933620;29;20182;-76
2021/04/12 12:09:50;;;;;;;1.40;0.83;;;;;;;;;;4934771;29;20221;-75
2021/04/12 12:12:35;;;;;;;1.30;0.93;;;;;;;;;;4933461;29;20189;-75
2021/04/12 12:15:13;;;;;;;2.33;1.10;;;;;;;;;;4934529;29;20193;-75
2021/04/12 12:17:47;;;;;;;1.90;1.13;;;;;;;;;;4933351;29;20284;-75
2021/04/12 12:20:16;;;;;;;1.53;1.00;;;;;;;;;;4933819;29;20508;-75
2021/04/12 12:23:01;;;;;;;1.37;0.80;;;;;;;;;;4933411;29;20706;-76
2021/04/12 12:25:40;;;;;;;2.33;0.83;;;;;;;;;;4934593;29;20182;-76
2021/04/12 12:28:20;;;;;;;2.77;1.00;;;;;;;;;;4917629;29;20303;-76
2021/04/12 12:31:05;;;;;;;1.00;1.00;;;;;;;;;;4933576;29;20171;-77
2021/04/12 12:33:32;;;;;;;1.43;0.87;;;;;;;;;;4941710;28;20209;-77
2021/04/12 12:35:59;;;;;;;2.93;1.20;;;;;;;;;;4956099;28;20666;-78
2021/04/12 12:38:30;;;;;;;3.63;1.20;;;;;;;;;;4936579;29;20225;-73
2021/04/12 12:41:01;;;;;;;1.67;1.00;;;;;;;;;;4936642;29;20186;-73
2021/04/12 12:43:31;;;;;;;2.80;1.20;;;;;;;;;;4936583;29;20174;-73
2021/04/12 12:46:08;;;;;;;2.10;1.40;;;;;;;;;;4952671;29;20173;-75
2021/04/12 12:48:34;;;;;;;1.70;1.00;;;;;;;;;;4952640;29;20205;-73
2021/04/12 12:51:03;;;;;;;4.50;1.17;;;;;;;;;;4952370;29;20188;-73
2021/04/12 12:53:31;;;;;;;3.40;1.03;;;;;;;;;;4953085;29;20188;-72
2021/04/12 12:56:04;;;;;;;1.70;1.00;;;;;;;;;;4953223;29;20255;-72
2021/04/12 12:58:30;;;;;;;2.57;1.30;;;;;;;;;;4936332;29;20231;-72
2021/04/12 13:00:57;;;;;;;2.50;1.17;;;;;;;;;;4936237;29;20184;-72
2021/04/12 13:03:35;;;;;;;2.77;1.30;;;;;;;;;;4952249;29;20181;-72
2021/04/12 13:06:12;;;;;;;1.63;1.10;;;;;;;;;;4952325;28;20278;-72
2021/04/12 13:08:37;;;;;;;2.23;1.10;;;;;;;;;;4939638;29;20594;-72
2021/04/12 13:11:03;;;;;;;3.53;1.23;;;;;;;;;;4955896;29;20195;-72
2021/04/12 13:13:30;;;;;;;3.37;1.30;;;;;;;;;;4955587;29;20188;-72
2021/04/12 13:15:58;;;;;;;1.40;1.00;;;;;;;;;;4939578;29;20215;-72
2021/04/12 13:18:28;;;;;;;2.70;1.00;;;;;;;;;;4939704;29;20200;-72
2021/04/12 13:20:56;;;;;;;1.93;1.03;;;;;;;;;;4955753;29;20179;-72
2021/04/12 13:23:31;;;;;;;2.87;1.20;;;;;;;;;;4955590;28;20174;-72
2021/04/12 13:25:57;;;;;;;1.83;1.23;;;;;;;;;;4955327;29;20189;-72
2021/04/12 13:28:41;;;;;;;1.93;1.10;;;;;;;;;;4955295;29;20202;-72
2021/04/12 13:31:12;;;;;;;1.70;1.20;;;;;;;;;;4955470;29;20185;-72
2021/04/12 13:33:52;;;;;;;2.97;1.37;;;;;;;;;;4955478;29;20665;-72
2021/04/12 13:36:19;;;;;;;2.13;1.40;;;;;;;;;;4955157;29;20203;-72
2021/04/12 13:38:45;;;;;;;1.40;1.20;;;;;;;;;;4955207;29;20210;-72
2021/04/12 13:41:20;;;;;;;2.87;1.20;;;;;;;;;;4955260;29;20174;-72
2021/04/12 13:43:48;;;;;;;1.37;1.00;;;;;;;;;;4956530;29;20197;-72
2021/04/12 13:46:19;;;;;;;1.30;1.20;;;;;;;;;;4955005;28;20546;-72
2021/04/12 13:48:50;;;;;;;3.47;1.40;;;;;;;;;;4939133;29;20206;-72
2021/04/12 13:51:23;;;;;;;1.77;1.07;;;;;;;;;;4956248;29;20175;-72
2021/04/12 13:53:51;;;;;;;3.00;1.10;;;;;;;;;;4956268;29;20669;-72
2021/04/12 13:56:40;;;;;;;2.83;1.30;;;;;;;;;;4954805;29;20204;-72
2021/04/12 13:59:15;;;;;;;2.60;1.30;;;;;;;;;;4947067;29;20215;-72
2021/04/12 14:01:42;;;;;;;3.13;1.20;;;;;;;;;;4939134;29;20267;-72
2021/04/12 14:04:15;;;;;;;2.10;1.40;;;;;;;;;;4938805;29;20265;-72
2021/04/12 14:06:51;;;;;;;3.23;1.33;;;;;;;;;;4954698;29;20186;-72
2021/04/12 14:09:24;;;;;;;2.27;1.37;;;;;;;;;;4954592;29;20217;-72
2021/04/12 14:11:53;;;;;;;1.97;1.60;;;;;;;;;;4938890;29;20190;-72
2021/04/12 14:14:27;;;;;;;1.83;1.57;;;;;;;;;;4955834;29;20553;-72
2021/04/12 14:17:02;;;;;;;2.40;1.67;;;;;;;;;;4954265;28;20201;-72
2021/04/12 14:19:38;;;;;;;2.70;1.93;;;;;;;;;;4953693;28;20204;-73
2021/04/12 14:22:06;;;;;;;3.43;2.10;;;;;;;;;;4939026;29;20252;-75
2021/04/12 14:24:34;;;;;;;2.23;2.03;;;;;;;;;;4938624;29;20231;-75
2021/04/12 14:27:01;;;;;;;3.33;2.17;;;;;;;;;;4955489;29;20204;-76
2021/04/12 14:29:27;;;;;;;2.90;2.30;;;;;;;;;;4954351;29;20206;-75
2021/04/12 14:31:53;;;;;;;3.17;2.43;;;;;;;;;;4955643;29;20177;-75
2021/04/12 14:34:35;;;;;;;2.80;2.40;;;;;;;;;;4954339;29;20185;-75
2021/04/12 14:37:05;;;;;;;4.30;2.17;;;;;;;;;;4954945;29;20734;-75
2021/04/12 14:39:31;;;;;;;4.47;2.63;;;;;;;;;;4938144;29;20259;-75
2021/04/12 14:41:58;;;;;;;3.40;2.43;;;;;;;;;;4954304;29;20180;-75
2021/04/12 14:44:34;;;;;;;6.03;2.40;;;;;;;;;;4938590;29;20705;-75
2021/04/12 14:47:00;;;;;;;3.97;2.67;;;;;;;;;;4938016;29;20199;-75
2021/04/12 14:49:38;;;;;;;5.60;3.13;;;;;;;;;;4953949;29;20623;-76
2021/04/12 14:52:09;;;;;;;2.97;2.73;;;;;;;;;;4953710;29;20185;-75
2021/04/12 14:54:36;;;;;;;3.70;3.23;;;;;;;;;;4953921;28;20196;-75